sensor_id;sensor_type;location;lat;lon;timestamp;P1;durP1;ratioP1;P2;durP2;ratioP2
69005;SDS011;56061;51.748;19.620;2023-02-23T00:01:53;11.30;;;4.50;;
69005;SDS011;56061;51.748;19.620;2023-02-23T00:04:22;9.80;;;4.30;;
69005;SDS011;56061;51.748;19.620;2023-02-23T00:06:50;9.50;;;4.10;;
69005;SDS011;56061;51.748;19.620;2023-02-23T00:09:17;10.10;;;4.00;;
69005;SDS011;56061;51.748;19.620;2023-02-23T00:11:56;13.00;;;4.30;;
69005;SDS011;56061;51.748;19.620;2023-02-23T00:14:27;11.70;;;4.30;;
69005;SDS011;56061;51.748;19.620;2023-02-23T00:16:56;10.30;;;4.00;;
69005;SDS011;56061;51.748;19.620;2023-02-23T00:19:25;10.40;;;4.00;;
69005;SDS011;56061;51.748;19.620;2023-02-23T00:21:52;10.80;;;4.40;;
69005;SDS011;56061;51.748;19.620;2023-02-23T00:24:19;13.30;;;4.70;;
69005;SDS011;56061;51.748;19.620;2023-02-23T00:26:47;8.40;;;3.10;;
69005;SDS011;56061;51.748;19.620;2023-02-23T00:29:19;10.00;;;4.20;;
69005;SDS011;56061;51.748;19.620;2023-02-23T00:31:48;12.30;;;4.50;;
69005;SDS011;56061;51.748;19.620;2023-02-23T00:34:18;11.40;;;4.30;;
69005;SDS011;56061;51.748;19.620;2023-02-23T00:36:50;10.40;;;4.10;;
69005;SDS011;56061;51.748;19.620;2023-02-23T00:39:21;10.60;;;4.50;;
69005;SDS011;56061;51.748;19.620;2023-02-23T00:41:49;11.70;;;4.40;;
69005;SDS011;56061;51.748;19.620;2023-02-23T00:44:18;12.50;;;4.80;;
69005;SDS011;56061;51.748;19.620;2023-02-23T00:46:47;9.90;;;4.30;;
69005;SDS011;56061;51.748;19.620;2023-02-23T00:49:18;11.10;;;4.30;;
69005;SDS011;56061;51.748;19.620;2023-02-23T00:51:46;13.20;;;4.90;;
69005;SDS011;56061;51.748;19.620;2023-02-23T00:54:15;10.90;;;4.70;;
69005;SDS011;56061;51.748;19.620;2023-02-23T00:56:42;10.20;;;4.70;;
69005;SDS011;56061;51.748;19.620;2023-02-23T00:59:09;9.80;;;4.20;;
69005;SDS011;56061;51.748;19.620;2023-02-23T01:01:38;9.80;;;4.20;;
69005;SDS011;56061;51.748;19.620;2023-02-23T01:04:08;13.40;;;5.10;;
69005;SDS011;56061;51.748;19.620;2023-02-23T01:06:38;11.80;;;4.40;;
69005;SDS011;56061;51.748;19.620;2023-02-23T01:09:09;9.20;;;3.90;;
69005;SDS011;56061;51.748;19.620;2023-02-23T01:11:41;9.10;;;3.40;;
69005;SDS011;56061;51.748;19.620;2023-02-23T01:14:09;11.40;;;4.50;;
69005;SDS011;56061;51.748;19.620;2023-02-23T01:16:36;11.30;;;4.00;;
69005;SDS011;56061;51.748;19.620;2023-02-23T01:19:05;11.20;;;4.60;;
69005;SDS011;56061;51.748;19.620;2023-02-23T01:21:35;10.00;;;4.20;;
69005;SDS011;56061;51.748;19.620;2023-02-23T01:24:03;10.10;;;4.60;;
69005;SDS011;56061;51.748;19.620;2023-02-23T01:26:34;10.10;;;4.70;;
69005;SDS011;56061;51.748;19.620;2023-02-23T01:29:05;11.30;;;4.60;;
69005;SDS011;56061;51.748;19.620;2023-02-23T01:31:35;10.60;;;5.10;;
69005;SDS011;56061;51.748;19.620;2023-02-23T01:34:04;10.50;;;4.50;;
69005;SDS011;56061;51.748;19.620;2023-02-23T01:36:34;13.80;;;4.90;;
69005;SDS011;56061;51.748;19.620;2023-02-23T01:39:03;12.30;;;5.10;;
69005;SDS011;56061;51.748;19.620;2023-02-23T01:41:34;13.30;;;4.80;;
69005;SDS011;56061;51.748;19.620;2023-02-23T01:44:57;12.10;;;4.70;;
69005;SDS011;56061;51.748;19.620;2023-02-23T01:46:56;12.60;;;4.80;;
69005;SDS011;56061;51.748;19.620;2023-02-23T01:49:26;12.30;;;4.70;;
69005;SDS011;56061;51.748;19.620;2023-02-23T01:52:00;13.10;;;5.30;;
69005;SDS011;56061;51.748;19.620;2023-02-23T01:54:32;12.10;;;5.00;;
69005;SDS011;56061;51.748;19.620;2023-02-23T01:57:17;12.60;;;4.80;;
69005;SDS011;56061;51.748;19.620;2023-02-23T01:59:48;14.20;;;4.80;;
69005;SDS011;56061;51.748;19.620;2023-02-23T02:02:17;12.70;;;4.40;;
69005;SDS011;56061;51.748;19.620;2023-02-23T02:04:46;12.20;;;5.40;;
69005;SDS011;56061;51.748;19.620;2023-02-23T02:07:21;11.20;;;4.50;;
69005;SDS011;56061;51.748;19.620;2023-02-23T02:09:53;12.30;;;4.70;;
69005;SDS011;56061;51.748;19.620;2023-02-23T02:12:40;11.90;;;4.40;;
69005;SDS011;56061;51.748;19.620;2023-02-23T02:15:11;11.80;;;4.60;;
69005;SDS011;56061;51.748;19.620;2023-02-23T02:17:58;10.10;;;4.20;;
69005;SDS011;56061;51.748;19.620;2023-02-23T02:36:03;10.70;;;4.50;;
69005;SDS011;56061;51.748;19.620;2023-02-23T02:44:48;12.00;;;4.10;;
69005;SDS011;56061;51.748;19.620;2023-02-23T02:47:38;9.70;;;4.40;;
69005;SDS011;56061;51.748;19.620;2023-02-23T02:50:29;10.40;;;3.40;;
69005;SDS011;56061;51.748;19.620;2023-02-23T02:53:10;10.80;;;4.30;;
69005;SDS011;56061;51.748;19.620;2023-02-23T02:56:02;10.30;;;4.30;;
69005;SDS011;56061;51.748;19.620;2023-02-23T02:58:31;8.10;;;2.80;;
69005;SDS011;56061;51.748;19.620;2023-02-23T03:01:05;9.90;;;4.20;;
69005;SDS011;56061;51.748;19.620;2023-02-23T03:03:53;14.10;;;5.30;;
69005;SDS011;56061;51.748;19.620;2023-02-23T03:06:48;12.70;;;5.40;;
69005;SDS011;56061;51.748;19.620;2023-02-23T03:09:52;11.50;;;5.40;;
69005;SDS011;56061;51.748;19.620;2023-02-23T03:19:47;12.10;;;5.00;;
69005;SDS011;56061;51.748;19.620;2023-02-23T03:22:52;10.00;;;4.10;;
69005;SDS011;56061;51.748;19.620;2023-02-23T03:25:50;10.30;;;4.30;;
69005;SDS011;56061;51.748;19.620;2023-02-23T03:32:06;10.90;;;4.60;;
69005;SDS011;56061;51.748;19.620;2023-02-23T03:38:44;13.50;;;5.00;;
69005;SDS011;56061;51.748;19.620;2023-02-23T03:41:49;10.00;;;4.70;;
69005;SDS011;56061;51.748;19.620;2023-02-23T03:44:40;13.50;;;5.50;;
69005;SDS011;56061;51.748;19.620;2023-02-23T03:47:32;12.10;;;4.50;;
69005;SDS011;56061;51.748;19.620;2023-02-23T03:53:55;12.30;;;5.20;;
69005;SDS011;56061;51.748;19.620;2023-02-23T03:56:48;15.10;;;6.30;;
69005;SDS011;56061;51.748;19.620;2023-02-23T03:59:40;15.10;;;7.10;;
69005;SDS011;56061;51.748;19.620;2023-02-23T04:02:34;14.10;;;6.40;;
69005;SDS011;56061;51.748;19.620;2023-02-23T04:05:22;15.30;;;7.20;;
69005;SDS011;56061;51.748;19.620;2023-02-23T04:08:11;13.70;;;5.60;;
69005;SDS011;56061;51.748;19.620;2023-02-23T04:11:27;15.90;;;6.50;;
69005;SDS011;56061;51.748;19.620;2023-02-23T04:14:54;18.40;;;6.50;;
69005;SDS011;56061;51.748;19.620;2023-02-23T04:17:30;14.10;;;5.90;;
69005;SDS011;56061;51.748;19.620;2023-02-23T04:19:57;15.10;;;6.20;;
69005;SDS011;56061;51.748;19.620;2023-02-23T04:22:24;17.10;;;6.40;;
69005;SDS011;56061;51.748;19.620;2023-02-23T04:24:51;15.10;;;6.20;;
69005;SDS011;56061;51.748;19.620;2023-02-23T04:27:17;13.40;;;5.30;;
69005;SDS011;56061;51.748;19.620;2023-02-23T04:29:44;12.40;;;5.50;;
69005;SDS011;56061;51.748;19.620;2023-02-23T04:32:18;17.00;;;5.20;;
69005;SDS011;56061;51.748;19.620;2023-02-23T04:34:46;12.50;;;4.60;;
69005;SDS011;56061;51.748;19.620;2023-02-23T04:37:13;13.40;;;5.50;;
69005;SDS011;56061;51.748;19.620;2023-02-23T04:39:39;16.60;;;7.40;;
69005;SDS011;56061;51.748;19.620;2023-02-23T04:42:08;16.00;;;6.80;;
69005;SDS011;56061;51.748;19.620;2023-02-23T04:44:35;15.10;;;6.30;;
69005;SDS011;56061;51.748;19.620;2023-02-23T04:47:01;15.30;;;7.00;;
69005;SDS011;56061;51.748;19.620;2023-02-23T04:49:28;19.50;;;7.90;;
69005;SDS011;56061;51.748;19.620;2023-02-23T04:51:54;25.90;;;8.60;;
69005;SDS011;56061;51.748;19.620;2023-02-23T04:54:21;24.90;;;8.60;;
69005;SDS011;56061;51.748;19.620;2023-02-23T04:56:47;22.20;;;8.20;;
69005;SDS011;56061;51.748;19.620;2023-02-23T04:59:14;18.60;;;7.30;;
69005;SDS011;56061;51.748;19.620;2023-02-23T05:01:41;15.70;;;6.90;;
69005;SDS011;56061;51.748;19.620;2023-02-23T05:04:07;14.00;;;5.20;;
69005;SDS011;56061;51.748;19.620;2023-02-23T05:06:34;18.50;;;7.40;;
69005;SDS011;56061;51.748;19.620;2023-02-23T05:09:01;16.30;;;6.80;;
69005;SDS011;56061;51.748;19.620;2023-02-23T05:11:28;19.00;;;6.80;;
69005;SDS011;56061;51.748;19.620;2023-02-23T05:13:55;18.30;;;7.20;;
69005;SDS011;56061;51.748;19.620;2023-02-23T05:16:21;16.20;;;6.80;;
69005;SDS011;56061;51.748;19.620;2023-02-23T05:18:48;18.90;;;6.90;;
69005;SDS011;56061;51.748;19.620;2023-02-23T05:21:15;16.40;;;7.00;;
69005;SDS011;56061;51.748;19.620;2023-02-23T05:23:42;18.00;;;8.30;;
69005;SDS011;56061;51.748;19.620;2023-02-23T05:26:11;17.40;;;8.30;;
69005;SDS011;56061;51.748;19.620;2023-02-23T05:28:39;17.60;;;7.90;;
69005;SDS011;56061;51.748;19.620;2023-02-23T05:31:08;15.60;;;7.00;;
69005;SDS011;56061;51.748;19.620;2023-02-23T05:33:35;14.60;;;6.40;;
69005;SDS011;56061;51.748;19.620;2023-02-23T05:36:12;18.60;;;7.40;;
69005;SDS011;56061;51.748;19.620;2023-02-23T05:38:43;17.30;;;7.50;;
69005;SDS011;56061;51.748;19.620;2023-02-23T05:41:17;19.90;;;7.30;;
69005;SDS011;56061;51.748;19.620;2023-02-23T05:43:48;19.80;;;7.60;;
69005;SDS011;56061;51.748;19.620;2023-02-23T05:46:20;17.80;;;7.60;;
69005;SDS011;56061;51.748;19.620;2023-02-23T05:48:50;16.10;;;6.70;;
69005;SDS011;56061;51.748;19.620;2023-02-23T05:51:20;18.80;;;7.20;;
69005;SDS011;56061;51.748;19.620;2023-02-23T05:53:47;16.50;;;6.60;;
69005;SDS011;56061;51.748;19.620;2023-02-23T05:56:15;14.80;;;6.30;;
69005;SDS011;56061;51.748;19.620;2023-02-23T05:58:47;17.00;;;6.50;;
69005;SDS011;56061;51.748;19.620;2023-02-23T06:01:15;18.60;;;8.00;;
69005;SDS011;56061;51.748;19.620;2023-02-23T06:03:43;16.30;;;7.30;;
69005;SDS011;56061;51.748;19.620;2023-02-23T06:06:11;16.90;;;7.50;;
69005;SDS011;56061;51.748;19.620;2023-02-23T06:08:38;18.80;;;8.10;;
69005;SDS011;56061;51.748;19.620;2023-02-23T06:11:04;20.30;;;8.10;;
69005;SDS011;56061;51.748;19.620;2023-02-23T06:13:31;16.40;;;7.50;;
69005;SDS011;56061;51.748;19.620;2023-02-23T06:15:58;18.70;;;7.10;;
69005;SDS011;56061;51.748;19.620;2023-02-23T06:18:26;22.50;;;9.70;;
69005;SDS011;56061;51.748;19.620;2023-02-23T06:20:54;21.30;;;9.00;;
69005;SDS011;56061;51.748;19.620;2023-02-23T06:23:21;24.30;;;9.30;;
69005;SDS011;56061;51.748;19.620;2023-02-23T06:25:47;26.20;;;9.80;;
69005;SDS011;56061;51.748;19.620;2023-02-23T06:28:14;29.10;;;11.10;;
69005;SDS011;56061;51.748;19.620;2023-02-23T06:30:40;22.20;;;8.10;;
69005;SDS011;56061;51.748;19.620;2023-02-23T06:33:07;23.60;;;9.20;;
69005;SDS011;56061;51.748;19.620;2023-02-23T06:35:34;23.40;;;9.30;;
69005;SDS011;56061;51.748;19.620;2023-02-23T06:38:01;19.40;;;8.50;;
69005;SDS011;56061;51.748;19.620;2023-02-23T06:40:28;17.50;;;7.10;;
69005;SDS011;56061;51.748;19.620;2023-02-23T06:42:55;20.60;;;8.10;;
69005;SDS011;56061;51.748;19.620;2023-02-23T06:45:22;20.40;;;9.40;;
69005;SDS011;56061;51.748;19.620;2023-02-23T06:47:48;20.10;;;8.40;;
69005;SDS011;56061;51.748;19.620;2023-02-23T06:50:15;20.60;;;8.80;;
69005;SDS011;56061;51.748;19.620;2023-02-23T06:52:42;16.00;;;7.60;;
69005;SDS011;56061;51.748;19.620;2023-02-23T06:55:08;17.60;;;7.70;;
69005;SDS011;56061;51.748;19.620;2023-02-23T06:57:35;23.00;;;8.40;;
69005;SDS011;56061;51.748;19.620;2023-02-23T07:00:02;19.10;;;8.80;;
69005;SDS011;56061;51.748;19.620;2023-02-23T07:02:29;20.70;;;8.80;;
69005;SDS011;56061;51.748;19.620;2023-02-23T07:04:57;20.70;;;8.40;;
69005;SDS011;56061;51.748;19.620;2023-02-23T07:07:24;18.60;;;7.90;;
69005;SDS011;56061;51.748;19.620;2023-02-23T07:09:50;19.20;;;7.70;;
69005;SDS011;56061;51.748;19.620;2023-02-23T07:12:17;18.70;;;7.50;;
69005;SDS011;56061;51.748;19.620;2023-02-23T07:14:44;18.40;;;8.00;;
69005;SDS011;56061;51.748;19.620;2023-02-23T07:17:10;18.70;;;7.40;;
69005;SDS011;56061;51.748;19.620;2023-02-23T07:19:38;14.70;;;6.60;;
69005;SDS011;56061;51.748;19.620;2023-02-23T07:22:04;15.10;;;6.80;;
69005;SDS011;56061;51.748;19.620;2023-02-23T07:24:31;17.30;;;6.70;;
69005;SDS011;56061;51.748;19.620;2023-02-23T07:26:57;17.10;;;7.50;;
69005;SDS011;56061;51.748;19.620;2023-02-23T07:29:24;18.10;;;7.90;;
69005;SDS011;56061;51.748;19.620;2023-02-23T07:31:53;19.60;;;8.80;;
69005;SDS011;56061;51.748;19.620;2023-02-23T07:34:21;19.80;;;8.80;;
69005;SDS011;56061;51.748;19.620;2023-02-23T07:36:47;20.40;;;9.50;;
69005;SDS011;56061;51.748;19.620;2023-02-23T07:39:14;24.00;;;9.90;;
69005;SDS011;56061;51.748;19.620;2023-02-23T07:41:41;27.50;;;10.80;;
69005;SDS011;56061;51.748;19.620;2023-02-23T07:44:07;35.30;;;14.00;;
69005;SDS011;56061;51.748;19.620;2023-02-23T07:46:34;26.40;;;11.60;;
69005;SDS011;56061;51.748;19.620;2023-02-23T07:49:02;27.40;;;12.20;;
69005;SDS011;56061;51.748;19.620;2023-02-23T07:51:28;24.10;;;11.00;;
69005;SDS011;56061;51.748;19.620;2023-02-23T07:53:55;27.30;;;10.20;;
69005;SDS011;56061;51.748;19.620;2023-02-23T07:56:21;22.60;;;8.80;;
69005;SDS011;56061;51.748;19.620;2023-02-23T07:58:48;19.30;;;8.10;;
69005;SDS011;56061;51.748;19.620;2023-02-23T08:01:14;21.40;;;8.90;;
69005;SDS011;56061;51.748;19.620;2023-02-23T08:03:41;21.30;;;8.50;;
69005;SDS011;56061;51.748;19.620;2023-02-23T08:06:16;16.20;;;7.80;;
69005;SDS011;56061;51.748;19.620;2023-02-23T08:08:43;17.60;;;7.00;;
69005;SDS011;56061;51.748;19.620;2023-02-23T08:11:10;17.00;;;7.70;;
69005;SDS011;56061;51.748;19.620;2023-02-23T08:13:37;25.10;;;9.80;;
69005;SDS011;56061;51.748;19.620;2023-02-23T08:16:04;17.20;;;8.00;;
69005;SDS011;56061;51.748;19.620;2023-02-23T08:18:30;21.70;;;8.80;;
69005;SDS011;56061;51.748;19.620;2023-02-23T08:20:59;18.20;;;8.50;;
69005;SDS011;56061;51.748;19.620;2023-02-23T08:23:32;21.90;;;9.30;;
69005;SDS011;56061;51.748;19.620;2023-02-23T08:26:00;23.70;;;10.00;;
69005;SDS011;56061;51.748;19.620;2023-02-23T08:28:28;23.20;;;8.60;;
69005;SDS011;56061;51.748;19.620;2023-02-23T08:30:56;24.30;;;9.40;;
69005;SDS011;56061;51.748;19.620;2023-02-23T08:33:25;20.60;;;9.00;;
69005;SDS011;56061;51.748;19.620;2023-02-23T08:35:51;23.60;;;9.50;;
69005;SDS011;56061;51.748;19.620;2023-02-23T08:38:20;27.90;;;11.50;;
69005;SDS011;56061;51.748;19.620;2023-02-23T08:40:46;24.90;;;9.90;;
69005;SDS011;56061;51.748;19.620;2023-02-23T08:43:13;23.30;;;10.70;;
69005;SDS011;56061;51.748;19.620;2023-02-23T08:45:39;23.40;;;9.80;;
69005;SDS011;56061;51.748;19.620;2023-02-23T08:48:06;24.50;;;8.80;;
69005;SDS011;56061;51.748;19.620;2023-02-23T08:50:34;30.70;;;12.30;;
69005;SDS011;56061;51.748;19.620;2023-02-23T08:53:01;26.70;;;11.20;;
69005;SDS011;56061;51.748;19.620;2023-02-23T08:55:28;36.10;;;13.30;;
69005;SDS011;56061;51.748;19.620;2023-02-23T08:57:54;29.70;;;12.20;;
69005;SDS011;56061;51.748;19.620;2023-02-23T09:00:21;22.20;;;10.00;;
69005;SDS011;56061;51.748;19.620;2023-02-23T09:02:48;22.60;;;10.30;;
69005;SDS011;56061;51.748;19.620;2023-02-23T09:05:15;20.30;;;8.70;;
69005;SDS011;56061;51.748;19.620;2023-02-23T09:07:42;24.40;;;10.40;;
69005;SDS011;56061;51.748;19.620;2023-02-23T09:10:16;27.40;;;11.40;;
69005;SDS011;56061;51.748;19.620;2023-02-23T09:12:45;27.40;;;11.00;;
69005;SDS011;56061;51.748;19.620;2023-02-23T09:15:11;24.70;;;10.90;;
69005;SDS011;56061;51.748;19.620;2023-02-23T09:17:38;26.70;;;10.80;;
69005;SDS011;56061;51.748;19.620;2023-02-23T09:20:07;23.60;;;8.80;;
69005;SDS011;56061;51.748;19.620;2023-02-23T09:22:34;24.20;;;10.30;;
69005;SDS011;56061;51.748;19.620;2023-02-23T09:25:02;30.30;;;11.10;;
69005;SDS011;56061;51.748;19.620;2023-02-23T09:27:30;22.40;;;10.10;;
69005;SDS011;56061;51.748;19.620;2023-02-23T09:29:56;24.00;;;10.50;;
69005;SDS011;56061;51.748;19.620;2023-02-23T09:32:23;30.60;;;11.80;;
69005;SDS011;56061;51.748;19.620;2023-02-23T09:34:50;29.50;;;11.70;;
69005;SDS011;56061;51.748;19.620;2023-02-23T09:37:17;31.40;;;10.50;;
69005;SDS011;56061;51.748;19.620;2023-02-23T09:39:44;28.40;;;11.30;;
69005;SDS011;56061;51.748;19.620;2023-02-23T09:42:29;20.90;;;8.70;;
69005;SDS011;56061;51.748;19.620;2023-02-23T09:45:19;24.60;;;10.00;;
69005;SDS011;56061;51.748;19.620;2023-02-23T09:50:30;22.30;;;9.90;;
69005;SDS011;56061;51.748;19.620;2023-02-23T09:53:04;23.00;;;10.10;;
69005;SDS011;56061;51.748;19.620;2023-02-23T09:55:38;24.30;;;10.20;;
69005;SDS011;56061;51.748;19.620;2023-02-23T09:58:17;22.40;;;10.70;;
69005;SDS011;56061;51.748;19.620;2023-02-23T10:06:55;23.40;;;10.20;;
69005;SDS011;56061;51.748;19.620;2023-02-23T10:09:43;23.70;;;10.60;;
69005;SDS011;56061;51.748;19.620;2023-02-23T10:12:31;22.40;;;8.80;;
69005;SDS011;56061;51.748;19.620;2023-02-23T10:18:30;19.10;;;8.70;;
69005;SDS011;56061;51.748;19.620;2023-02-23T10:21:20;18.20;;;7.80;;
69005;SDS011;56061;51.748;19.620;2023-02-23T10:23:59;19.50;;;8.40;;
69005;SDS011;56061;51.748;19.620;2023-02-23T10:26:38;19.70;;;8.40;;
69005;SDS011;56061;51.748;19.620;2023-02-23T10:29:20;16.80;;;8.00;;
69005;SDS011;56061;51.748;19.620;2023-02-23T10:31:58;19.40;;;8.80;;
69005;SDS011;56061;51.748;19.620;2023-02-23T10:34:28;18.70;;;8.40;;
69005;SDS011;56061;51.748;19.620;2023-02-23T10:36:58;18.60;;;8.10;;
69005;SDS011;56061;51.748;19.620;2023-02-23T10:39:31;15.80;;;7.00;;
69005;SDS011;56061;51.748;19.620;2023-02-23T10:42:02;19.20;;;8.80;;
69005;SDS011;56061;51.748;19.620;2023-02-23T10:44:33;20.70;;;9.30;;
69005;SDS011;56061;51.748;19.620;2023-02-23T10:47:13;17.20;;;7.50;;
69005;SDS011;56061;51.748;19.620;2023-02-23T10:49:44;23.10;;;8.90;;
69005;SDS011;56061;51.748;19.620;2023-02-23T10:52:26;20.00;;;8.90;;
69005;SDS011;56061;51.748;19.620;2023-02-23T10:54:58;20.30;;;8.80;;
69005;SDS011;56061;51.748;19.620;2023-02-23T10:57:32;20.90;;;9.30;;
69005;SDS011;56061;51.748;19.620;2023-02-23T11:00:05;23.50;;;9.40;;
69005;SDS011;56061;51.748;19.620;2023-02-23T11:02:38;21.60;;;9.30;;
69005;SDS011;56061;51.748;19.620;2023-02-23T11:05:43;17.20;;;8.10;;
69005;SDS011;56061;51.748;19.620;2023-02-23T11:08:20;19.80;;;8.60;;
69005;SDS011;56061;51.748;19.620;2023-02-23T11:10:57;18.70;;;8.40;;
69005;SDS011;56061;51.748;19.620;2023-02-23T11:13:37;21.70;;;9.10;;
69005;SDS011;56061;51.748;19.620;2023-02-23T11:16:14;18.80;;;8.60;;
69005;SDS011;56061;51.748;19.620;2023-02-23T11:18:50;18.20;;;7.70;;
69005;SDS011;56061;51.748;19.620;2023-02-23T11:21:31;22.60;;;9.80;;
69005;SDS011;56061;51.748;19.620;2023-02-23T11:24:24;19.20;;;7.90;;
69005;SDS011;56061;51.748;19.620;2023-02-23T11:26:54;23.00;;;10.00;;
69005;SDS011;56061;51.748;19.620;2023-02-23T11:29:30;18.10;;;8.20;;
69005;SDS011;56061;51.748;19.620;2023-02-23T11:34:40;19.40;;;9.60;;
69005;SDS011;56061;51.748;19.620;2023-02-23T11:39:55;27.80;;;14.40;;
69005;SDS011;56061;51.748;19.620;2023-02-23T11:42:30;22.80;;;9.90;;
69005;SDS011;56061;51.748;19.620;2023-02-23T11:45:04;18.40;;;8.40;;
69005;SDS011;56061;51.748;19.620;2023-02-23T11:47:46;17.20;;;8.20;;
69005;SDS011;56061;51.748;19.620;2023-02-23T11:50:29;21.00;;;9.60;;
69005;SDS011;56061;51.748;19.620;2023-02-23T11:53:04;23.40;;;10.20;;
69005;SDS011;56061;51.748;19.620;2023-02-23T11:55:38;24.00;;;9.50;;
69005;SDS011;56061;51.748;19.620;2023-02-23T12:01:07;22.00;;;9.10;;
69005;SDS011;56061;51.748;19.620;2023-02-23T12:04:02;35.60;;;13.00;;
69005;SDS011;56061;51.748;19.620;2023-02-23T12:06:40;27.20;;;10.10;;
69005;SDS011;56061;51.748;19.620;2023-02-23T12:09:26;19.70;;;8.20;;
69005;SDS011;56061;51.748;19.620;2023-02-23T12:12:07;20.40;;;9.90;;
69005;SDS011;56061;51.748;19.620;2023-02-23T12:15:01;20.40;;;8.80;;
69005;SDS011;56061;51.748;19.620;2023-02-23T12:17:46;19.00;;;7.80;;
69005;SDS011;56061;51.748;19.620;2023-02-23T12:20:21;15.80;;;7.20;;
69005;SDS011;56061;51.748;19.620;2023-02-23T12:22:55;17.70;;;7.40;;
69005;SDS011;56061;51.748;19.620;2023-02-23T12:25:26;16.10;;;6.90;;
69005;SDS011;56061;51.748;19.620;2023-02-23T12:28:05;18.20;;;7.80;;
69005;SDS011;56061;51.748;19.620;2023-02-23T12:34:03;20.30;;;8.80;;
69005;SDS011;56061;51.748;19.620;2023-02-23T12:36:43;18.70;;;7.90;;
69005;SDS011;56061;51.748;19.620;2023-02-23T12:39:23;19.20;;;7.60;;
69005;SDS011;56061;51.748;19.620;2023-02-23T12:45:14;18.90;;;7.60;;
69005;SDS011;56061;51.748;19.620;2023-02-23T12:47:55;17.00;;;7.70;;
69005;SDS011;56061;51.748;19.620;2023-02-23T12:50:43;16.40;;;7.20;;
69005;SDS011;56061;51.748;19.620;2023-02-23T12:53:36;15.50;;;6.70;;
69005;SDS011;56061;51.748;19.620;2023-02-23T13:02:17;16.80;;;6.40;;
69005;SDS011;56061;51.748;19.620;2023-02-23T13:08:28;20.80;;;8.50;;
69005;SDS011;56061;51.748;19.620;2023-02-23T13:11:36;20.80;;;8.40;;
69005;SDS011;56061;51.748;19.620;2023-02-23T13:20:35;16.40;;;7.60;;
69005;SDS011;56061;51.748;19.620;2023-02-23T13:29:23;22.40;;;9.00;;
69005;SDS011;56061;51.748;19.620;2023-02-23T13:31:52;18.40;;;8.30;;
69005;SDS011;56061;51.748;19.620;2023-02-23T13:34:43;17.10;;;7.50;;
69005;SDS011;56061;51.748;19.620;2023-02-23T13:37:20;18.10;;;8.20;;
69005;SDS011;56061;51.748;19.620;2023-02-23T13:40:02;13.00;;;6.80;;
69005;SDS011;56061;51.748;19.620;2023-02-23T13:56:25;20.00;;;8.70;;
69005;SDS011;56061;51.748;19.620;2023-02-23T13:58:59;20.60;;;8.90;;
69005;SDS011;56061;51.748;19.620;2023-02-23T14:01:42;20.40;;;8.20;;
69005;SDS011;56061;51.748;19.620;2023-02-23T14:04:19;20.20;;;9.80;;
69005;SDS011;56061;51.748;19.620;2023-02-23T14:07:02;20.50;;;9.20;;
69005;SDS011;56061;51.748;19.620;2023-02-23T14:10:05;19.70;;;8.00;;
69005;SDS011;56061;51.748;19.620;2023-02-23T14:21:16;18.30;;;8.50;;
69005;SDS011;56061;51.748;19.620;2023-02-23T14:29:26;23.20;;;9.80;;
69005;SDS011;56061;51.748;19.620;2023-02-23T14:37:40;24.80;;;10.50;;
69005;SDS011;56061;51.748;19.620;2023-02-23T14:40:14;25.20;;;10.40;;
69005;SDS011;56061;51.748;19.620;2023-02-23T14:42:51;25.90;;;10.50;;
69005;SDS011;56061;51.748;19.620;2023-02-23T14:45:24;24.10;;;9.70;;
69005;SDS011;56061;51.748;19.620;2023-02-23T14:48:10;26.00;;;9.90;;
69005;SDS011;56061;51.748;19.620;2023-02-23T14:50:39;26.40;;;10.40;;
69005;SDS011;56061;51.748;19.620;2023-02-23T14:53:18;20.40;;;8.90;;
69005;SDS011;56061;51.748;19.620;2023-02-23T14:55:47;18.90;;;9.00;;
69005;SDS011;56061;51.748;19.620;2023-02-23T14:58:29;16.70;;;7.10;;
69005;SDS011;56061;51.748;19.620;2023-02-23T15:00:58;19.90;;;8.20;;
69005;SDS011;56061;51.748;19.620;2023-02-23T15:03:25;20.90;;;8.30;;
69005;SDS011;56061;51.748;19.620;2023-02-23T15:05:55;20.10;;;8.90;;
69005;SDS011;56061;51.748;19.620;2023-02-23T15:08:26;19.50;;;9.20;;
69005;SDS011;56061;51.748;19.620;2023-02-23T15:11:10;22.90;;;9.90;;
69005;SDS011;56061;51.748;19.620;2023-02-23T15:13:45;27.10;;;10.80;;
69005;SDS011;56061;51.748;19.620;2023-02-23T15:16:20;24.20;;;10.50;;
69005;SDS011;56061;51.748;19.620;2023-02-23T15:18:53;32.90;;;13.80;;
69005;SDS011;56061;51.748;19.620;2023-02-23T15:21:21;46.20;;;20.10;;
69005;SDS011;56061;51.748;19.620;2023-02-23T15:23:51;33.30;;;14.40;;
69005;SDS011;56061;51.748;19.620;2023-02-23T15:29:20;38.10;;;15.80;;
69005;SDS011;56061;51.748;19.620;2023-02-23T15:31:51;29.80;;;13.30;;
69005;SDS011;56061;51.748;19.620;2023-02-23T15:34:26;31.80;;;12.90;;
69005;SDS011;56061;51.748;19.620;2023-02-23T15:37:03;29.80;;;13.20;;
69005;SDS011;56061;51.748;19.620;2023-02-23T15:39:47;32.10;;;14.40;;
69005;SDS011;56061;51.748;19.620;2023-02-23T15:42:39;37.80;;;16.20;;
69005;SDS011;56061;51.748;19.620;2023-02-23T15:47:52;61.70;;;27.80;;
69005;SDS011;56061;51.748;19.620;2023-02-23T15:50:27;44.90;;;22.50;;
69005;SDS011;56061;51.748;19.620;2023-02-23T15:53:08;37.30;;;16.70;;
69005;SDS011;56061;51.748;19.620;2023-02-23T15:55:46;38.70;;;17.40;;
69005;SDS011;56061;51.748;19.620;2023-02-23T15:58:29;35.80;;;16.90;;
69005;SDS011;56061;51.748;19.620;2023-02-23T16:01:08;35.20;;;14.90;;
69005;SDS011;56061;51.748;19.620;2023-02-23T16:03:55;35.30;;;15.30;;
69005;SDS011;56061;51.748;19.620;2023-02-23T16:12:10;42.00;;;18.30;;
69005;SDS011;56061;51.748;19.620;2023-02-23T16:14:48;38.90;;;18.30;;
69005;SDS011;56061;51.748;19.620;2023-02-23T16:17:23;40.50;;;17.70;;
69005;SDS011;56061;51.748;19.620;2023-02-23T16:20:12;36.30;;;16.60;;
69005;SDS011;56061;51.748;19.620;2023-02-23T16:22:45;39.70;;;16.80;;
69005;SDS011;56061;51.748;19.620;2023-02-23T16:25:15;44.10;;;19.60;;
69005;SDS011;56061;51.748;19.620;2023-02-23T16:27:44;45.50;;;20.20;;
69005;SDS011;56061;51.748;19.620;2023-02-23T16:30:17;46.30;;;20.20;;
69005;SDS011;56061;51.748;19.620;2023-02-23T16:33:23;59.30;;;24.80;;
69005;SDS011;56061;51.748;19.620;2023-02-23T16:36:04;61.00;;;25.10;;
69005;SDS011;56061;51.748;19.620;2023-02-23T16:38:55;69.50;;;27.40;;
69005;SDS011;56061;51.748;19.620;2023-02-23T16:41:31;72.70;;;28.50;;
69005;SDS011;56061;51.748;19.620;2023-02-23T16:44:01;91.70;;;36.70;;
69005;SDS011;56061;51.748;19.620;2023-02-23T16:46:32;86.80;;;34.10;;
69005;SDS011;56061;51.748;19.620;2023-02-23T16:49:18;75.00;;;32.30;;
69005;SDS011;56061;51.748;19.620;2023-02-23T16:51:45;73.40;;;32.30;;
69005;SDS011;56061;51.748;19.620;2023-02-23T16:54:11;79.60;;;34.20;;
69005;SDS011;56061;51.748;19.620;2023-02-23T16:56:38;85.80;;;35.90;;
69005;SDS011;56061;51.748;19.620;2023-02-23T16:59:05;81.30;;;35.60;;
69005;SDS011;56061;51.748;19.620;2023-02-23T17:01:36;87.50;;;36.00;;
69005;SDS011;56061;51.748;19.620;2023-02-23T17:04:02;84.90;;;37.20;;
69005;SDS011;56061;51.748;19.620;2023-02-23T17:06:29;91.60;;;37.60;;
69005;SDS011;56061;51.748;19.620;2023-02-23T17:08:55;106.10;;;41.20;;
69005;SDS011;56061;51.748;19.620;2023-02-23T17:11:24;126.60;;;47.00;;